Aérodrome :
LOGIN :

S'inscrire | Disclaimer

   EN    FR    IT 

 










Légende :    VFR   VFR Marginal   IFR   IFR Intensif   IFR Très Intensif
Visi : 
Plafond : 
>= 8 km
>= 3000ft
5 à 8 km
1000 à 3000 ft
1500m à 5 km
500 à 1000 ft
800 à 1500m
200 à 500 ft
< 800m
< 200 ft
Symboles :   Orages  Brouillard  Fortes neiges  Fortes précipitations  Vent > 20 kt
SIGMETs :   Divers  Orages  Givrage  Turbulence  Onde Orograph.  Cendres Volcan.






- Altitude de l'aérodrome : 1046 ft
- Code IATA : NUE


EDDN - Nuremberg

DERNIER METAR :
  • 091820Z 27006KT 9999 -SHRA FEW010 SCT015 BKN023 05/03 Q1007 NOSIG

METARs EXPIRÉS :
  • 091750Z 27011KT 9999 -SHRA SCT010 BKN020 BKN035 06/03 Q1006 NOSIG
  • 091720Z 24007KT 9999 -SHRA FEW015 BKN033 06/03 Q1005 NOSIG
  • 091650Z 24007KT 9999 FEW020 BKN035 07/03 Q1005 NOSIG
  • 091620Z 24009KT 9999 FEW015 BKN035 07/03 Q1005 NOSIG
  • 091550Z 24008KT 200V270 9999 FEW015 BKN035 07/03 Q1004 NOSIG

TAF TAF EDDN
Valide du 09 à 18h jusqu'au 10 à 18h UTC


091700Z 0918/1018 24007KT 9999 BKN035
PROB30
TEMPO 0921/1002 4000 SHRASN SCT008 BKN012TCU
BECMG 0922/0924 30008KT
BECMG 1013/1015 24005KT
BECMG 1017/1018 15005KT



MET'MAP, la Météo Aéronautique d'un coup d'oeil ! - Copyright ORBIFLY Décembre 2007 - Disclaimer

ORBIFLY MET'MAP TEAM :

Programmation & Développement : Alexandra Zaïnal
Sur une idée originale de : Baudouin d'Aumeries
Assistance à la programmation : Marc-Olivier Méhu
Soutien technique & logistique : Manuel Goepfert

Contact : metmap@orbifly.com




SOURCES & CREDITS :

   NOAA